createdAt,value
2022-12-06T00:02:26.113Z,41.37
2022-12-06T00:04:56.175Z,41.38
2022-12-06T00:07:26.422Z,41.41
2022-12-06T00:09:59.430Z,41.33
2022-12-06T00:12:30.891Z,41.38
2022-12-06T00:15:01.562Z,41.58
2022-12-06T00:17:32.236Z,41.34
2022-12-06T00:20:02.365Z,41.49
2022-12-06T00:22:33.204Z,41.37
2022-12-06T00:25:05.011Z,41.33
2022-12-06T00:27:35.674Z,41.35
2022-12-06T00:30:06.761Z,41.48
2022-12-06T00:32:36.820Z,41.35
2022-12-06T00:35:09.378Z,41.81
2022-12-06T00:37:40.040Z,41.55
2022-12-06T00:40:15.115Z,41.75
2022-12-06T00:42:45.773Z,41.58
2022-12-06T00:45:15.939Z,41.31
2022-12-06T00:47:46.451Z,41.51
2022-12-06T00:50:17.456Z,41.16
2022-12-06T00:52:47.542Z,41.63
2022-12-06T00:55:20.150Z,41.58
2022-12-06T00:57:51.492Z,41.65
2022-12-06T01:00:23.574Z,41.64
2022-12-06T01:02:54.302Z,41.53
2022-12-06T01:05:25.038Z,41.94
2022-12-06T01:07:55.733Z,41.86
2022-12-06T01:10:28.761Z,41.29
2022-12-06T01:12:59.016Z,41.54
2022-12-06T01:15:29.572Z,41.57
2022-12-06T01:18:01.032Z,41.76
2022-12-06T01:20:31.760Z,41.71
2022-12-06T01:23:04.563Z,41.66
2022-12-06T01:25:37.395Z,41.78
2022-12-06T01:28:08.605Z,41.95
2022-12-06T01:30:42.792Z,41.71
2022-12-06T01:33:12.910Z,41.82
2022-12-06T01:35:44.875Z,41.48
2022-12-06T01:38:15.039Z,41.66
2022-12-06T01:40:50.331Z,41.96
2022-12-06T01:43:40.889Z,41.75
2022-12-06T01:46:25.398Z,41.91
2022-12-06T01:49:03.031Z,41.96
2022-12-06T01:51:33.958Z,42.21
2022-12-06T01:54:08.523Z,41.88
2022-12-06T01:56:43.020Z,42.07
2022-12-06T01:59:15.803Z,41.78
2022-12-06T02:01:55.027Z,42.03
2022-12-06T02:04:26.450Z,42.18
2022-12-06T02:06:59.711Z,42.37
2022-12-06T02:09:32.295Z,42.28
2022-12-06T02:12:04.601Z,42.52
2022-12-06T02:14:38.039Z,42.31
2022-12-06T02:17:28.951Z,42.47
2022-12-06T02:20:10.175Z,42.30
2022-12-06T02:23:35.619Z,42.38
2022-12-06T02:26:37.528Z,42.25
2022-12-06T02:30:00.244Z,42.47
2022-12-06T02:32:39.375Z,42.79
2022-12-06T02:35:22.688Z,42.37
2022-12-06T02:38:02.679Z,42.41
2022-12-06T02:40:42.757Z,42.69
2022-12-06T02:43:20.096Z,42.59
2022-12-06T02:45:56.396Z,42.57
2022-12-06T02:48:29.710Z,42.70
2022-12-06T02:51:06.702Z,42.64
2022-12-06T02:53:43.828Z,43.07
2022-12-06T02:56:17.346Z,42.98
2022-12-06T02:58:47.896Z,42.83
2022-12-06T03:01:21.421Z,42.86
2022-12-06T03:04:46.873Z,42.85
2022-12-06T03:07:37.506Z,42.82
2022-12-06T03:10:36.433Z,42.76
2022-12-06T03:13:19.170Z,42.90
2022-12-06T03:15:58.793Z,42.93
2022-12-06T03:18:40.462Z,42.97
2022-12-06T03:21:18.469Z,43.00
2022-12-06T03:23:52.811Z,43.20
2022-12-06T03:26:29.487Z,43.20
2022-12-06T03:29:03.360Z,42.97
2022-12-06T03:31:39.274Z,43.04
2022-12-06T03:34:17.385Z,42.98
2022-12-06T03:36:52.769Z,43.17
2022-12-06T03:39:31.564Z,43.12
2022-12-06T03:42:03.507Z,43.16
2022-12-06T03:44:35.568Z,43.15
2022-12-06T03:47:16.338Z,42.95
2022-12-06T03:49:56.862Z,43.28
2022-12-06T03:52:32.722Z,43.07
2022-12-06T03:55:02.760Z,43.06
2022-12-06T03:57:33.428Z,43.50
2022-12-06T04:00:04.378Z,43.44
2022-12-06T04:02:34.955Z,43.28
2022-12-06T04:05:04.981Z,43.18
2022-12-06T04:07:37.614Z,43.64
2022-12-06T04:10:09.189Z,43.46
2022-12-06T04:12:55.989Z,43.63
2022-12-06T04:15:26.022Z,43.27
2022-12-06T04:18:14.343Z,42.98
2022-12-06T04:21:05.381Z,43.67
2022-12-06T04:23:40.166Z,43.45
2022-12-06T04:26:14.549Z,43.13
2022-12-06T04:29:01.954Z,43.79
2022-12-06T04:31:49.519Z,43.58
2022-12-06T04:34:36.852Z,43.21
2022-12-06T04:37:25.003Z,43.47
2022-12-06T04:39:58.013Z,43.36
2022-12-06T04:42:44.889Z,43.33
2022-12-06T04:45:15.463Z,43.50
2022-12-06T04:47:45.417Z,43.24
2022-12-06T04:50:15.407Z,43.28
2022-12-06T04:52:46.093Z,43.42
2022-12-06T04:55:18.591Z,44.00
2022-12-06T04:57:49.043Z,43.93
2022-12-06T05:00:20.373Z,43.64
2022-12-06T05:02:50.307Z,44.05
2022-12-06T05:05:19.809Z,43.81
2022-12-06T05:07:49.945Z,43.64
2022-12-06T05:10:22.874Z,43.98
2022-12-06T05:12:52.931Z,44.21
2022-12-06T05:15:27.818Z,44.07
2022-12-06T05:18:00.822Z,44.17
2022-12-06T05:20:31.272Z,43.89
2022-12-06T05:23:01.957Z,44.21
2022-12-06T05:25:34.098Z,44.35
2022-12-06T05:28:04.665Z,44.07
2022-12-06T05:30:35.259Z,44.50
2022-12-06T05:33:06.270Z,44.21
2022-12-06T05:35:36.781Z,44.01
2022-12-06T05:38:07.209Z,44.34
2022-12-06T05:40:41.391Z,44.30
2022-12-06T05:43:12.358Z,43.97
2022-12-06T05:45:43.387Z,44.08
2022-12-06T05:48:14.510Z,44.36
2022-12-06T05:50:45.082Z,44.26
2022-12-06T05:53:15.603Z,44.66
2022-12-06T05:55:48.337Z,44.47
2022-12-06T05:58:19.383Z,44.41
2022-12-06T06:00:50.979Z,44.65
2022-12-06T06:03:21.416Z,44.53
2022-12-06T06:05:53.194Z,44.70
2022-12-06T06:08:23.361Z,44.89
2022-12-06T06:10:56.219Z,45.06
2022-12-06T06:13:26.432Z,45.30
2022-12-06T06:15:57.595Z,45.11
2022-12-06T06:18:28.044Z,45.17
2022-12-06T06:21:02.840Z,45.31
2022-12-06T06:23:33.635Z,45.25
2022-12-06T06:26:10.656Z,45.33
2022-12-06T06:28:40.987Z,45.93
2022-12-06T06:31:11.648Z,46.38
2022-12-06T06:33:42.217Z,46.45
2022-12-06T06:36:13.341Z,46.25
2022-12-06T06:38:43.889Z,46.43
2022-12-06T06:41:17.062Z,46.36
2022-12-06T06:43:47.046Z,46.44
2022-12-06T06:46:17.600Z,46.21
2022-12-06T06:48:48.359Z,46.22
2022-12-06T06:51:18.480Z,46.08
2022-12-06T06:53:48.921Z,45.90
2022-12-06T06:56:21.857Z,46.05
2022-12-06T06:58:51.931Z,45.77
2022-12-06T07:01:25.767Z,45.75
2022-12-06T07:03:55.500Z,45.99
2022-12-06T07:06:25.588Z,45.56
2022-12-06T07:08:56.046Z,45.68
2022-12-06T07:11:28.105Z,45.64
2022-12-06T07:13:58.726Z,45.40
2022-12-06T07:16:29.123Z,45.60
2022-12-06T07:18:59.200Z,45.11
2022-12-06T07:21:28.764Z,45.18
2022-12-06T07:24:02.541Z,45.25
2022-12-06T07:26:35.153Z,45.21
2022-12-06T07:29:05.699Z,44.59
2022-12-06T07:31:36.342Z,44.62
2022-12-06T07:34:07.092Z,44.50
2022-12-06T07:36:37.259Z,44.53
2022-12-06T07:39:11.655Z,44.48
2022-12-06T07:42:03.435Z,44.50
2022-12-06T07:44:50.642Z,44.56
2022-12-06T07:47:21.072Z,44.06
2022-12-06T07:49:54.809Z,44.51
2022-12-06T07:52:25.621Z,44.10
2022-12-06T07:54:55.927Z,43.90
2022-12-06T07:57:28.451Z,43.75
2022-12-06T07:59:58.897Z,43.64
2022-12-06T08:02:30.972Z,44.07
2022-12-06T08:05:01.057Z,44.10
2022-12-06T08:07:34.302Z,44.39
2022-12-06T08:10:04.469Z,44.21
2022-12-06T08:12:36.510Z,44.13
2022-12-06T08:15:13.406Z,44.29
2022-12-06T08:17:44.546Z,43.47
2022-12-06T08:20:15.260Z,43.89
2022-12-06T08:22:45.276Z,43.53
2022-12-06T08:25:15.561Z,42.82
2022-12-06T08:27:47.561Z,42.20
2022-12-06T08:30:18.285Z,41.78
2022-12-06T08:32:48.320Z,41.25
2022-12-06T08:35:18.771Z,39.99
2022-12-06T08:37:49.485Z,39.42
2022-12-06T08:40:19.339Z,39.37
2022-12-06T08:42:51.399Z,38.76
2022-12-06T08:45:21.419Z,38.13
2022-12-06T08:47:51.353Z,37.50
2022-12-06T08:50:21.378Z,37.84
2022-12-06T08:52:51.775Z,37.24
2022-12-06T08:55:21.953Z,37.60
2022-12-06T08:57:53.506Z,36.97
2022-12-06T09:00:24.074Z,37.31
2022-12-06T09:02:55.032Z,36.78
2022-12-06T09:05:25.208Z,36.83
2022-12-06T09:07:55.288Z,36.85
2022-12-06T09:10:25.836Z,36.84
2022-12-06T09:12:58.154Z,36.78
2022-12-06T09:15:28.321Z,36.93
2022-12-06T09:17:58.794Z,37.54
2022-12-06T09:20:28.976Z,37.05
2022-12-06T09:23:00.779Z,37.63
2022-12-06T09:25:31.484Z,37.42
2022-12-06T09:28:03.854Z,37.41
2022-12-06T09:30:34.355Z,37.29
2022-12-06T09:33:05.199Z,37.69
2022-12-06T09:35:37.450Z,37.26
2022-12-06T09:38:08.911Z,37.06
2022-12-06T09:41:00.695Z,37.32
2022-12-06T09:43:54.922Z,37.54
2022-12-06T09:46:52.100Z,37.12
2022-12-06T09:49:39.372Z,37.70
2022-12-06T09:52:52.007Z,37.50
2022-12-06T09:55:44.457Z,37.13
2022-12-06T09:58:33.788Z,37.58
2022-12-06T10:01:20.627Z,37.61
2022-12-06T10:04:18.763Z,38.13
2022-12-06T10:07:09.102Z,37.44
2022-12-06T10:09:53.790Z,38.03
2022-12-06T10:12:46.040Z,37.89
2022-12-06T10:15:40.414Z,37.80
2022-12-06T10:18:48.307Z,38.00
2022-12-06T10:21:31.432Z,37.62
2022-12-06T10:24:25.274Z,37.81
2022-12-06T10:27:02.148Z,37.96
2022-12-06T10:29:52.950Z,37.77
2022-12-06T10:32:41.184Z,37.75
2022-12-06T10:35:24.605Z,37.41
2022-12-06T10:38:12.949Z,37.66
2022-12-06T10:40:57.929Z,37.84
2022-12-06T10:43:35.740Z,37.54
2022-12-06T10:46:45.520Z,37.81
2022-12-06T10:49:27.882Z,37.54
2022-12-06T10:52:09.745Z,37.73
2022-12-06T10:54:49.449Z,38.09
2022-12-06T10:57:31.855Z,37.97
2022-12-06T11:00:14.656Z,38.11
2022-12-06T11:02:56.080Z,38.23
2022-12-06T11:05:34.247Z,38.16
2022-12-06T11:08:15.482Z,38.07
2022-12-06T11:10:48.818Z,38.27
2022-12-06T11:13:26.685Z,38.33
2022-12-06T11:16:04.562Z,38.09
2022-12-06T11:18:38.487Z,38.39
2022-12-06T11:21:25.827Z,38.19
2022-12-06T11:24:10.474Z,38.48
2022-12-06T11:26:49.288Z,38.49
2022-12-06T11:29:20.877Z,38.33
2022-12-06T11:31:57.125Z,38.44
2022-12-06T11:34:34.440Z,38.18
2022-12-06T11:37:07.732Z,38.55
2022-12-06T11:39:42.044Z,38.62
2022-12-06T11:42:16.732Z,38.67
2022-12-06T11:44:56.562Z,38.42
2022-12-06T11:47:28.019Z,38.70
2022-12-06T11:50:04.274Z,38.39
2022-12-06T11:52:45.907Z,38.41
2022-12-06T11:55:23.213Z,38.27
2022-12-06T11:58:00.516Z,38.46
2022-12-06T12:00:31.479Z,38.59
2022-12-06T12:03:02.526Z,38.01
2022-12-06T12:05:38.925Z,38.36
2022-12-06T12:08:19.795Z,38.28
2022-12-06T12:11:04.757Z,38.36
2022-12-06T12:13:48.912Z,38.36
2022-12-06T12:16:25.189Z,38.54
2022-12-06T12:19:02.865Z,38.88
2022-12-06T12:21:41.079Z,38.55
2022-12-06T12:25:18.019Z,38.76
2022-12-06T12:27:57.879Z,38.82
2022-12-06T12:30:35.196Z,38.72
2022-12-06T12:33:24.329Z,38.80
2022-12-06T12:35:58.520Z,38.67
2022-12-06T12:38:44.943Z,38.89
2022-12-06T12:41:31.024Z,38.89
2022-12-06T12:47:03.602Z,38.96
2022-12-06T12:49:37.794Z,38.82
2022-12-06T12:52:31.213Z,39.14
2022-12-06T12:55:04.718Z,38.79
2022-12-06T12:57:44.439Z,38.71
2022-12-06T13:00:19.192Z,38.85
2022-12-06T13:02:55.421Z,38.72
2022-12-06T13:05:34.810Z,38.74
2022-12-06T13:08:15.778Z,39.00
2022-12-06T13:10:55.555Z,38.87
2022-12-06T13:13:44.030Z,38.70
2022-12-06T13:16:22.984Z,38.59
2022-12-06T13:18:59.979Z,38.93
2022-12-06T13:21:49.813Z,38.79
2022-12-06T13:24:27.731Z,38.80
2022-12-06T13:27:11.427Z,39.02
2022-12-06T13:29:56.959Z,38.96
2022-12-06T13:32:41.303Z,39.02
2022-12-06T13:35:27.822Z,38.98
2022-12-06T13:38:07.041Z,38.90
2022-12-06T13:40:58.937Z,39.02
2022-12-06T13:44:00.432Z,38.94
2022-12-06T13:46:40.588Z,38.80
2022-12-06T13:49:48.843Z,38.95
2022-12-06T13:53:03.793Z,39.03
2022-12-06T13:56:01.986Z,39.17
2022-12-06T13:58:56.304Z,39.20
2022-12-06T14:01:46.444Z,39.16
2022-12-06T14:04:52.465Z,39.16
2022-12-06T14:07:35.988Z,39.28
2022-12-06T14:10:16.396Z,39.25
2022-12-06T14:12:47.873Z,39.28
2022-12-06T14:15:21.269Z,39.38
2022-12-06T14:18:09.421Z,38.91
2022-12-06T14:20:45.945Z,39.14
2022-12-06T14:23:38.484Z,39.13
2022-12-06T14:26:27.506Z,39.54
2022-12-06T14:29:05.678Z,39.33
2022-12-06T14:31:46.313Z,39.38
2022-12-06T14:34:31.085Z,39.22
2022-12-06T14:37:16.195Z,39.49
2022-12-06T14:39:55.540Z,39.46
2022-12-06T14:42:43.065Z,39.35
2022-12-06T14:45:20.003Z,39.46
2022-12-06T14:47:52.459Z,39.54
2022-12-06T14:50:34.928Z,39.46
2022-12-06T14:53:15.449Z,39.46
2022-12-06T14:55:59.840Z,39.55
2022-12-06T14:58:36.351Z,39.64
2022-12-06T15:01:27.218Z,39.58
2022-12-06T15:04:05.305Z,39.63
2022-12-06T15:06:43.946Z,39.96
2022-12-06T15:09:28.200Z,39.57
2022-12-06T15:12:42.891Z,39.59
2022-12-06T15:15:38.224Z,39.71
2022-12-06T15:18:23.412Z,39.71
2022-12-06T15:20:56.335Z,39.72
2022-12-06T15:23:52.406Z,40.05
2022-12-06T15:26:27.066Z,39.80
2022-12-06T15:29:01.479Z,39.82
2022-12-06T15:31:35.699Z,39.72
2022-12-06T15:34:23.181Z,39.76
2022-12-06T15:37:15.558Z,39.75
2022-12-06T15:39:51.527Z,39.87
2022-12-06T15:42:30.122Z,39.88
2022-12-06T15:45:02.456Z,39.78
2022-12-06T15:47:44.893Z,39.77
2022-12-06T15:50:17.388Z,39.70
2022-12-06T15:52:52.040Z,39.95
2022-12-06T15:55:27.434Z,39.91
2022-12-06T15:58:01.284Z,40.01
2022-12-06T16:00:34.342Z,39.97
2022-12-06T16:03:10.699Z,39.98
2022-12-06T16:05:47.009Z,39.92
2022-12-06T16:08:26.108Z,39.96
2022-12-06T16:11:11.766Z,40.05
2022-12-06T16:13:51.252Z,39.94
2022-12-06T16:16:28.535Z,39.86
2022-12-06T16:19:03.664Z,39.95
2022-12-06T16:22:02.467Z,40.09
2022-12-06T16:24:38.303Z,40.04
2022-12-06T16:27:13.977Z,39.89
2022-12-06T16:29:51.166Z,40.22
2022-12-06T16:32:29.279Z,40.09
2022-12-06T16:35:02.473Z,40.01
2022-12-06T16:37:38.072Z,40.01
2022-12-06T16:40:21.662Z,40.07
2022-12-06T16:42:55.880Z,40.09
2022-12-06T16:45:39.048Z,40.23
2022-12-06T16:48:20.364Z,40.02
2022-12-06T16:50:59.320Z,40.24
2022-12-06T16:53:38.939Z,40.30
2022-12-06T16:56:16.763Z,40.40
2022-12-06T16:58:56.073Z,40.09
2022-12-06T17:01:40.698Z,39.98
2022-12-06T17:04:16.823Z,40.27
2022-12-06T17:06:47.760Z,40.37
2022-12-06T17:09:24.489Z,40.25
2022-12-06T17:12:09.999Z,40.35
2022-12-06T17:14:45.346Z,40.46
2022-12-06T17:17:21.128Z,40.28
2022-12-06T17:19:56.612Z,40.70
2022-12-06T17:22:32.735Z,40.54
2022-12-06T17:25:09.671Z,40.76
2022-12-06T17:27:53.573Z,40.56
2022-12-06T17:30:28.839Z,40.51
2022-12-06T17:33:04.518Z,40.59
2022-12-06T17:35:37.693Z,40.44
2022-12-06T17:38:12.088Z,40.45
2022-12-06T17:40:49.493Z,40.60
2022-12-06T17:43:22.149Z,40.97
2022-12-06T17:45:54.228Z,40.78
2022-12-06T17:48:37.888Z,40.88
2022-12-06T17:51:22.478Z,40.91
2022-12-06T17:54:08.915Z,40.57
2022-12-06T17:56:46.295Z,40.86
2022-12-06T17:59:21.813Z,40.91
2022-12-06T18:02:15.084Z,40.70
2022-12-06T18:04:57.336Z,41.03
2022-12-06T18:07:28.880Z,40.99
2022-12-06T18:09:59.753Z,41.08
2022-12-06T18:12:32.012Z,41.03
2022-12-06T18:15:05.219Z,41.26
2022-12-06T18:17:35.892Z,41.20
2022-12-06T18:20:16.066Z,41.40
2022-12-06T18:22:46.993Z,40.99
2022-12-06T18:25:17.779Z,41.09
2022-12-06T18:27:49.134Z,41.29
2022-12-06T18:30:20.944Z,41.27
2022-12-06T18:32:51.097Z,41.30
2022-12-06T18:35:23.506Z,41.68
2022-12-06T18:37:54.183Z,41.21
2022-12-06T18:40:24.835Z,41.40
2022-12-06T18:42:54.915Z,41.49
2022-12-06T18:45:25.843Z,41.74
2022-12-06T18:47:56.582Z,41.62
2022-12-06T18:50:29.080Z,41.35
2022-12-06T18:52:59.297Z,41.39
2022-12-06T18:55:29.892Z,41.67
2022-12-06T18:58:00.680Z,41.37
2022-12-06T19:00:31.371Z,41.66
2022-12-06T19:03:03.522Z,41.45
2022-12-06T19:06:01.147Z,41.60
2022-12-06T19:08:27.605Z,41.59
2022-12-06T19:11:03.901Z,41.65
2022-12-06T19:13:34.416Z,41.61
2022-12-06T19:16:06.517Z,41.86
2022-12-06T19:18:37.962Z,41.63
2022-12-06T19:21:10.277Z,41.68
2022-12-06T19:23:40.680Z,41.61
2022-12-06T19:26:10.942Z,41.62
2022-12-06T19:28:43.950Z,41.86
2022-12-06T19:31:16.704Z,41.63
2022-12-06T19:33:48.986Z,41.77
2022-12-06T19:36:24.326Z,41.83
2022-12-06T19:38:59.904Z,42.06
2022-12-06T19:41:31.148Z,42.09
2022-12-06T19:44:15.714Z,41.89
2022-12-06T19:46:48.698Z,41.76
2022-12-06T19:49:22.980Z,41.99
2022-12-06T19:51:55.663Z,41.90
2022-12-06T19:54:29.171Z,41.85
2022-12-06T19:57:03.043Z,42.11
2022-12-06T19:59:36.243Z,41.97
2022-12-06T20:02:07.746Z,41.86
2022-12-06T20:04:42.083Z,41.77
2022-12-06T20:07:14.642Z,41.84
2022-12-06T20:09:45.529Z,41.79
2022-12-06T20:12:16.251Z,41.87
2022-12-06T20:14:49.991Z,41.96
2022-12-06T20:17:24.142Z,41.95
2022-12-06T20:19:54.859Z,41.64
2022-12-06T20:22:27.050Z,42.08
2022-12-06T20:24:57.723Z,41.98
2022-12-06T20:27:41.455Z,41.96
2022-12-06T20:30:14.169Z,41.99
2022-12-06T20:32:47.131Z,42.19
2022-12-06T20:35:18.544Z,41.86
2022-12-06T20:37:54.163Z,42.17
2022-12-06T20:40:31.253Z,42.03
2022-12-06T20:43:02.241Z,42.19
2022-12-06T20:45:33.428Z,42.25
2022-12-06T20:48:06.855Z,42.21
2022-12-06T20:50:36.719Z,42.03
2022-12-06T20:53:09.175Z,42.18
2022-12-06T20:55:40.033Z,41.95
2022-12-06T20:58:10.757Z,42.12
2022-12-06T21:00:45.061Z,42.25
2022-12-06T21:03:15.672Z,42.05
2022-12-06T21:05:52.330Z,42.18
2022-12-06T21:08:27.475Z,42.35
2022-12-06T21:11:22.209Z,42.42
2022-12-06T21:13:50.829Z,42.31
2022-12-06T21:16:24.084Z,42.07
2022-12-06T21:18:59.723Z,41.96
2022-12-06T21:21:33.365Z,41.94
2022-12-06T21:24:09.209Z,42.05
2022-12-06T21:26:39.973Z,41.93
2022-12-06T21:29:14.800Z,42.18
2022-12-06T21:31:45.726Z,42.21
2022-12-06T21:34:17.326Z,42.11
2022-12-06T21:36:48.545Z,42.18
2022-12-06T21:39:21.051Z,42.29
2022-12-06T21:41:52.072Z,42.27
2022-12-06T21:44:22.309Z,42.11
2022-12-06T21:46:54.961Z,42.37
2022-12-06T21:49:25.559Z,42.09
2022-12-06T21:52:03.154Z,41.99
2022-12-06T21:54:43.547Z,42.28
2022-12-06T21:57:13.695Z,42.19
2022-12-06T21:59:44.330Z,42.34
2022-12-06T22:02:15.452Z,42.58
2022-12-06T22:04:45.853Z,42.06
2022-12-06T22:07:16.505Z,42.33
2022-12-06T22:09:49.007Z,42.61
2022-12-06T22:12:19.474Z,42.52
2022-12-06T22:14:51.319Z,42.69
2022-12-06T22:17:22.096Z,42.60
2022-12-06T22:19:52.695Z,42.30
2022-12-06T22:22:24.034Z,42.47
2022-12-06T22:24:56.832Z,42.49
2022-12-06T22:27:26.996Z,42.68
2022-12-06T22:29:57.014Z,42.67
2022-12-06T22:32:27.027Z,42.60
2022-12-06T22:34:57.995Z,42.34
2022-12-06T22:37:28.792Z,42.33
2022-12-06T22:40:01.631Z,42.37
2022-12-06T22:42:34.121Z,42.38
2022-12-06T22:45:04.909Z,42.22
2022-12-06T22:47:35.707Z,42.24
2022-12-06T22:50:07.009Z,42.49
2022-12-06T22:52:38.599Z,42.33
2022-12-06T22:55:12.257Z,42.73
2022-12-06T22:57:43.038Z,42.32
2022-12-06T23:00:13.913Z,42.70
2022-12-06T23:02:43.944Z,42.64
2022-12-06T23:05:14.653Z,42.58
2022-12-06T23:07:51.974Z,42.44
2022-12-06T23:10:24.568Z,42.34
2022-12-06T23:12:55.047Z,42.52
2022-12-06T23:15:24.965Z,42.71
2022-12-06T23:17:54.973Z,42.40
2022-12-06T23:20:25.630Z,42.79
2022-12-06T23:22:56.499Z,42.36
2022-12-06T23:25:29.109Z,42.34
2022-12-06T23:27:59.373Z,42.56
2022-12-06T23:30:29.979Z,42.38
2022-12-06T23:33:00.410Z,42.63
2022-12-06T23:35:30.450Z,42.66
2022-12-06T23:38:00.815Z,42.71
2022-12-06T23:40:33.474Z,42.70
2022-12-06T23:43:04.119Z,42.64
2022-12-06T23:45:34.700Z,42.68
2022-12-06T23:48:04.749Z,42.54
2022-12-06T23:50:35.459Z,42.46
2022-12-06T23:53:06.174Z,42.63
2022-12-06T23:55:40.385Z,42.81
2022-12-06T23:58:11.027Z,43.03
